Time;durP1;ratioP1;P1;durP2;ratioP2;P2;SDS_P1;SDS_P2;PMS_P1;PMS_P2;Temp;Humidity;BMP_temperature;BMP_pressure;BME280_temperature;BME280_humidity;BME280_pressure;Samples;Min_cycle;Max_cycle;Signal;HPM_P1;HPM_P2
2021/08/13 00:00:42;;;;;;;20.48;10.10;;;;;;;14.59;71.44;100989.05;1731773;82;26321;-63
2021/08/13 00:03:12;;;;;;;13.18;9.00;;;;;;;14.57;71.38;100990.72;1730260;82;25825;-63
2021/08/13 00:05:39;;;;;;;18.25;9.45;;;;;;;14.55;71.52;100992.94;1732053;82;25733;-63
2021/08/13 00:08:07;;;;;;;10.60;8.95;;;;;;;14.53;71.49;100993.03;1722647;82;27218;-63
2021/08/13 00:10:33;;;;;;;16.80;9.43;;;;;;;14.52;71.59;100992.77;1712502;82;25875;-64
2021/08/13 00:13:00;;;;;;;14.05;9.50;;;;;;;14.50;71.46;100993.66;1731792;82;25754;-64
2021/08/13 00:15:27;;;;;;;14.10;8.93;;;;;;;14.49;71.60;100996.95;1731903;82;25842;-64
2021/08/13 00:17:53;;;;;;;15.65;10.88;;;;;;;14.48;71.95;100986.37;1730417;82;26091;-64
2021/08/13 00:20:20;;;;;;;15.00;9.90;;;;;;;14.45;71.96;100987.80;1741053;82;27339;-63
2021/08/13 00:22:49;;;;;;;13.75;9.30;;;;;;;14.44;71.82;100988.94;1741357;82;25748;-64
2021/08/13 00:25:15;;;;;;;18.35;13.40;;;;;;;14.43;71.79;100990.61;1722226;82;26304;-64
2021/08/13 00:27:42;;;;;;;14.50;9.70;;;;;;;14.42;72.05;100984.91;1742017;82;25796;-64
2021/08/13 00:30:10;;;;;;;11.90;9.80;;;;;;;14.41;72.26;100988.77;1742031;82;25738;-64
2021/08/13 00:32:37;;;;;;;11.50;8.95;;;;;;;14.37;72.36;100990.77;1741930;82;27568;-64
2021/08/13 00:35:05;;;;;;;18.48;9.45;;;;;;;14.36;72.10;100992.44;1741926;82;25801;-64
2021/08/13 00:37:31;;;;;;;13.13;8.83;;;;;;;14.33;72.05;100990.34;1742126;82;25710;-64
2021/08/13 00:39:58;;;;;;;13.53;9.18;;;;;;;14.32;72.06;100988.20;1741579;82;25783;-64
2021/08/13 00:42:25;;;;;;;11.00;9.23;;;;;;;14.30;71.95;100990.98;1741896;82;25686;-64
2021/08/13 00:44:51;;;;;;;12.90;8.93;;;;;;;14.29;72.24;100992.11;1741902;82;27566;-64
2021/08/13 00:47:18;;;;;;;11.20;9.23;;;;;;;14.27;72.05;100990.24;1741606;82;25935;-64
2021/08/13 00:49:44;;;;;;;13.20;9.20;;;;;;;14.25;72.12;100992.48;1742217;82;25641;-64
2021/08/13 00:52:15;;;;;;;13.78;10.13;;;;;;;14.23;72.09;100992.80;1722176;82;25784;-64
2021/08/13 00:54:41;;;;;;;13.22;9.50;;;;;;;14.22;72.08;100994.47;1742040;82;25659;-64
2021/08/13 00:57:08;;;;;;;12.28;8.68;;;;;;;14.19;72.07;100993.99;1737732;82;27395;-64
2021/08/13 00:59:37;;;;;;;12.00;9.10;;;;;;;14.17;72.17;100992.16;1741624;82;25688;-64
2021/08/13 01:02:03;;;;;;;11.15;9.05;;;;;;;14.15;72.18;100997.11;1740111;82;25300;-64
2021/08/13 01:04:30;;;;;;;11.60;8.90;;;;;;;14.11;72.21;100992.05;1709175;82;25786;-64
2021/08/13 01:06:56;;;;;;;16.82;9.78;;;;;;;14.08;72.25;100992.70;1722843;82;26210;-64
2021/08/13 01:09:23;;;;;;;12.95;9.58;;;;;;;14.05;72.32;100993.33;1741910;82;27282;-64
2021/08/13 01:12:04;;;;;;;16.52;10.00;;;;;;;14.04;72.73;100988.98;1741697;82;25613;-64
2021/08/13 01:14:57;;;;;;;16.65;10.48;;;;;;;13.99;72.69;100987.20;1739569;82;25772;-64
2021/08/13 01:17:23;;;;;;;12.33;9.53;;;;;;;13.97;72.91;100996.25;1740187;82;25724;-64
2021/08/13 01:20:16;;;;;;;13.48;9.18;;;;;;;13.92;73.07;100999.10;1737749;82;25768;-64
2021/08/13 01:23:00;;;;;;;17.05;9.98;;;;;;;13.90;72.97;100996.47;1733390;82;28024;-64
2021/08/13 01:25:34;;;;;;;15.30;9.88;;;;;;;13.88;73.09;100995.98;1734490;82;25727;-64
2021/08/13 01:28:06;;;;;;;14.55;9.73;;;;;;;13.86;73.28;100992.22;1734274;82;25771;-64
2021/08/13 01:30:35;;;;;;;12.90;9.68;;;;;;;13.81;73.19;100987.72;1733589;82;26302;-62
2021/08/13 01:33:09;;;;;;;12.70;10.00;;;;;;;13.79;73.32;100996.75;1734539;82;25660;-63
2021/08/13 01:35:40;;;;;;;13.93;9.73;;;;;;;13.78;73.30;100997.06;1734518;82;26887;-62
2021/08/13 01:38:18;;;;;;;17.20;9.70;;;;;;;13.75;73.32;100993.03;1734324;82;25807;-62
2021/08/13 01:40:48;;;;;;;12.82;9.40;;;;;;;13.73;73.28;100993.91;1733361;82;25728;-62
2021/08/13 01:43:23;;;;;;;11.83;9.20;;;;;;;13.71;73.30;100985.84;1734524;82;26051;-62
2021/08/13 01:45:51;;;;;;;14.78;10.45;;;;;;;13.68;73.31;100984.53;1715193;82;25757;-62
2021/08/13 01:48:20;;;;;;;13.03;10.30;;;;;;;13.67;73.42;100984.28;1734459;82;27901;-62
2021/08/13 01:50:47;;;;;;;13.60;9.80;;;;;;;13.64;73.49;100980.84;1715603;82;25830;-62
2021/08/13 01:53:15;;;;;;;16.37;9.95;;;;;;;13.62;73.47;100976.27;1734212;82;25827;-62
2021/08/13 01:55:43;;;;;;;14.25;10.13;;;;;;;13.59;73.67;100980.42;1734211;82;25742;-62
2021/08/13 01:58:10;;;;;;;12.40;10.32;;;;;;;13.57;73.64;100984.02;1734632;82;25704;-62
2021/08/13 02:00:37;;;;;;;17.25;11.05;;;;;;;13.55;73.65;100987.61;1734521;82;27395;-62
2021/08/13 02:03:07;;;;;;;14.07;10.23;;;;;;;13.53;73.70;100987.09;1733811;82;25740;-62
2021/08/13 02:05:35;;;;;;;11.78;10.32;;;;;;;13.52;73.81;100986.86;1734422;82;25657;-62
2021/08/13 02:08:06;;;;;;;12.98;9.98;;;;;;;13.51;73.92;100987.17;1734286;82;25839;-62
2021/08/13 02:10:36;;;;;;;16.42;10.70;;;;;;;13.49;73.98;100987.48;1740148;82;25729;-62
2021/08/13 02:13:04;;;;;;;15.03;10.88;;;;;;;13.47;73.95;100986.17;1733650;82;27319;-62
2021/08/13 02:15:32;;;;;;;13.68;10.75;;;;;;;13.44;74.46;100983.53;1715655;82;25751;-62
2021/08/13 02:18:08;;;;;;;15.00;10.25;;;;;;;13.44;74.42;100989.77;1714791;82;26418;-62
2021/08/13 02:20:39;;;;;;;15.75;11.38;;;;;;;13.41;74.49;100989.02;1736432;82;25820;-62
2021/08/13 02:23:07;;;;;;;14.50;10.48;;;;;;;13.41;74.54;100992.30;1718066;82;25777;-62
2021/08/13 02:25:34;;;;;;;16.53;9.93;;;;;;;13.40;74.48;100992.87;1736782;82;28086;-62
2021/08/13 02:28:00;;;;;;;15.48;10.75;;;;;;;13.39;74.44;101003.48;1736779;82;25806;-62
2021/08/13 02:30:27;;;;;;;13.18;11.03;;;;;;;13.37;74.40;101004.36;1736894;82;25740;-62
2021/08/13 02:32:54;;;;;;;13.40;10.82;;;;;;;13.36;74.42;101009.53;1736478;82;25858;-62
2021/08/13 02:35:20;;;;;;;14.45;10.95;;;;;;;13.34;74.53;101006.89;1736398;82;25764;-62
2021/08/13 02:38:14;;;;;;;16.25;11.90;;;;;;;13.33;74.71;101003.38;1736570;82;27324;-62
2021/08/13 02:40:52;;;;;;;17.15;12.65;;;;;;;13.32;74.72;101001.77;1736007;82;25689;-62
2021/08/13 02:43:31;;;;;;;17.40;13.30;;;;;;;13.31;75.09;101002.84;1735573;82;25674;-62
2021/08/13 02:45:59;;;;;;;19.05;13.10;;;;;;;13.29;75.11;101002.92;1736842;82;25872;-63
2021/08/13 02:48:28;;;;;;;15.23;11.43;;;;;;;13.28;75.19;101006.20;1737418;82;25639;-62
2021/08/13 02:50:57;;;;;;;16.17;11.18;;;;;;;13.26;75.44;101004.32;1737364;82;27916;-62
2021/08/13 02:53:25;;;;;;;16.12;11.33;;;;;;;13.25;75.31;101000.02;1736827;82;26348;-62
2021/08/13 02:55:58;;;;;;;15.38;11.48;;;;;;;13.23;75.14;101003.05;1737370;82;25777;-62
2021/08/13 02:58:39;;;;;;;16.27;11.22;;;;;;;13.23;75.13;101004.97;1718655;82;25662;-62
2021/08/13 03:01:05;;;;;;;14.53;11.30;;;;;;;13.21;75.23;101005.27;1737212;82;25819;-62
2021/08/13 03:03:33;;;;;;;19.40;12.07;;;;;;;13.20;75.09;101006.37;1737454;82;27291;-62
2021/08/13 03:06:03;;;;;;;16.17;12.53;;;;;;;13.20;75.11;101005.58;1718101;82;25986;-62
2021/08/13 03:08:30;;;;;;;14.23;11.57;;;;;;;13.19;75.17;101008.03;1736956;82;25768;-62
2021/08/13 03:10:58;;;;;;;15.80;11.88;;;;;;;13.18;75.20;101005.09;1737272;82;25712;-62
2021/08/13 03:13:25;;;;;;;17.60;12.15;;;;;;;13.19;75.46;101009.39;1737410;82;25870;-62
2021/08/13 03:15:52;;;;;;;17.35;12.78;;;;;;;13.18;75.53;100997.73;1718237;82;28193;-62
2021/08/13 03:18:20;;;;;;;19.95;12.55;;;;;;;13.18;75.71;101001.02;1737291;82;26047;-63
2021/08/13 03:20:49;;;;;;;20.12;12.30;;;;;;;13.17;75.88;101000.75;1735548;82;25752;-62
2021/08/13 03:23:16;;;;;;;16.73;11.88;;;;;;;13.14;75.84;100999.45;1734795;82;25804;-62
2021/08/13 03:25:44;;;;;;;14.87;11.78;;;;;;;13.16;75.68;101007.28;1734502;82;25762;-62
2021/08/13 03:28:11;;;;;;;16.62;12.25;;;;;;;13.15;75.75;101006.50;1734679;82;27948;-62
2021/08/13 03:30:41;;;;;;;17.50;11.83;;;;;;;13.15;76.05;101009.21;1734541;82;25672;-62
2021/08/13 03:33:14;;;;;;;17.65;11.43;;;;;;;13.14;76.03;101008.16;1734258;82;25752;-62
2021/08/13 03:35:43;;;;;;;15.20;11.55;;;;;;;13.12;75.82;101000.88;1734234;82;25755;-63
2021/08/13 03:38:11;;;;;;;15.93;11.55;;;;;;;13.11;75.98;101008.23;1734002;82;25813;-63
2021/08/13 03:40:37;;;;;;;16.60;11.83;;;;;;;13.12;76.08;100999.52;1733885;82;28092;-62
2021/08/13 03:43:04;;;;;;;15.72;12.47;;;;;;;13.11;76.25;100997.91;1734562;82;25791;-62
2021/08/13 03:45:30;;;;;;;16.95;11.65;;;;;;;13.14;76.33;101001.37;1714728;82;25662;-62
2021/08/13 03:47:56;;;;;;;18.52;12.37;;;;;;;13.15;76.22;101002.42;1734462;82;26393;-62
2021/08/13 03:50:23;;;;;;;15.65;12.03;;;;;;;13.15;76.42;100994.84;1734678;82;25685;-63
2021/08/13 03:52:49;;;;;;;16.30;12.68;;;;;;;13.18;76.55;101002.38;1734661;82;27299;-63
2021/08/13 03:55:16;;;;;;;18.98;13.15;;;;;;;13.18;76.73;101003.17;1734700;82;26149;-63
2021/08/13 03:57:42;;;;;;;18.90;13.35;;;;;;;13.19;77.23;100997.96;1734393;82;25817;-63
2021/08/13 04:00:12;;;;;;;18.10;12.35;;;;;;;13.21;77.38;100999.02;1734468;82;25695;-63
2021/08/13 04:02:38;;;;;;;15.75;12.73;;;;;;;13.21;77.31;100997.66;1714829;82;33140;-63
2021/08/13 04:05:06;;;;;;;16.50;12.20;;;;;;;13.23;77.42;101000.89;1734581;82;27325;-63
2021/08/13 04:07:33;;;;;;;17.62;12.10;;;;;;;13.25;77.29;101000.81;1734464;82;25797;-63
2021/08/13 04:09:59;;;;;;;15.90;12.37;;;;;;;13.27;77.36;100997.79;1710860;82;25720;-63
2021/08/13 04:12:25;;;;;;;19.17;11.80;;;;;;;13.29;77.60;101000.98;1714371;82;25850;-63
2021/08/13 04:14:52;;;;;;;15.32;11.65;;;;;;;13.32;77.61;101003.13;1734166;82;25739;-63
2021/08/13 04:17:19;;;;;;;14.93;11.40;;;;;;;13.35;77.60;101008.48;1734761;82;27403;-63
2021/08/13 04:19:45;;;;;;;19.35;13.40;;;;;;;13.39;77.80;101007.56;1736380;81;25780;-63
2021/08/13 04:22:11;;;;;;;18.42;13.30;;;;;;;13.40;78.01;101007.81;1753810;81;25648;-63
2021/08/13 04:24:40;;;;;;;16.93;13.00;;;;;;;13.43;78.19;101019.97;1754273;81;25731;-63
2021/08/13 04:27:06;;;;;;;18.65;13.22;;;;;;;13.47;78.26;101018.78;1754406;81;25683;-63
2021/08/13 04:29:34;;;;;;;18.17;13.20;;;;;;;13.51;78.43;101021.94;1724594;81;28079;-63
2021/08/13 04:32:00;;;;;;;16.52;13.43;;;;;;;13.54;78.68;101019.96;1754444;81;25687;-63
2021/08/13 04:34:26;;;;;;;17.52;12.50;;;;;;;13.59;78.99;101014.96;1725475;81;25723;-63
2021/08/13 04:36:53;;;;;;;14.58;12.63;;;;;;;13.65;78.91;101019.13;1753904;81;25689;-63
2021/08/13 04:39:19;;;;;;;18.10;12.18;;;;;;;13.69;78.89;101021.48;1724836;81;26445;-63
2021/08/13 04:41:45;;;;;;;18.15;13.50;;;;;;;13.75;79.08;101023.51;1754395;81;29486;-65
2021/08/13 04:44:12;;;;;;;19.92;13.75;;;;;;;13.79;79.30;101014.95;1754057;81;26335;-64
2021/08/13 04:46:38;;;;;;;21.12;14.23;;;;;;;13.84;79.58;101020.27;1754430;81;25753;-64
2021/08/13 04:49:05;;;;;;;19.45;13.03;;;;;;;13.90;79.63;101024.45;1754422;81;25728;-64
2021/08/13 04:51:32;;;;;;;19.55;13.58;;;;;;;13.98;79.74;101026.98;1754419;81;25787;-65
2021/08/13 04:53:58;;;;;;;19.87;13.38;;;;;;;14.06;79.97;101028.12;1754432;81;27968;-64
2021/08/13 04:56:25;;;;;;;19.57;13.35;;;;;;;14.14;80.09;101030.08;1753723;81;25656;-64
2021/08/13 04:58:52;;;;;;;20.57;14.50;;;;;;;14.20;80.12;101036.42;1754041;81;25740;-64
2021/08/13 05:01:18;;;;;;;16.00;13.65;;;;;;;14.29;80.22;101040.52;1754051;81;25783;-64
2021/08/13 05:03:45;;;;;;;17.35;13.85;;;;;;;14.39;80.39;101048.96;1725058;81;25796;-64
2021/08/13 05:06:11;;;;;;;20.57;12.93;;;;;;;14.48;80.36;101044.33;1739431;81;27866;-64
2021/08/13 05:08:39;;;;;;;18.37;12.70;;;;;;;14.57;80.36;101041.08;1754093;81;25763;-64
2021/08/13 05:11:05;;;;;;;17.35;12.70;;;;;;;14.68;80.58;101048.41;1754276;81;25632;-64
2021/08/13 05:13:31;;;;;;;19.55;12.25;;;;;;;14.77;80.47;101044.33;1754244;81;25661;-63
2021/08/13 05:15:57;;;;;;;15.13;11.95;;;;;;;14.88;80.60;101052.98;1754415;81;25736;-63
2021/08/13 05:18:23;;;;;;;14.00;11.93;;;;;;;15.00;80.44;101045.54;1754196;81;27388;-63
2021/08/13 05:20:50;;;;;;;16.40;11.93;;;;;;;15.11;80.33;101048.19;1745658;81;26088;-63
2021/08/13 05:23:16;;;;;;;13.62;10.93;;;;;;;15.22;80.16;101043.20;1715159;82;25837;-63
2021/08/13 05:25:42;;;;;;;14.68;10.30;;;;;;;15.32;80.07;101045.59;1734448;82;25630;-63
2021/08/13 05:28:09;;;;;;;14.93;10.60;;;;;;;15.44;79.81;101051.76;1734205;82;25742;-63
2021/08/13 05:30:35;;;;;;;16.12;10.28;;;;;;;15.57;79.82;101051.34;1733740;82;27327;-64
2021/08/13 05:33:02;;;;;;;16.25;11.22;;;;;;;15.70;79.54;101053.09;1734309;82;25781;-64
2021/08/13 05:35:28;;;;;;;15.50;10.28;;;;;;;15.83;79.46;101054.84;1715391;82;25841;-64
2021/08/13 05:37:57;;;;;;;10.93;9.75;;;;;;;15.99;79.33;101056.47;1734403;82;26346;-64
2021/08/13 05:40:23;;;;;;;11.38;8.98;;;;;;;16.17;79.42;101053.08;1734495;82;25796;-64
2021/08/13 05:42:50;;;;;;;14.98;10.85;;;;;;;16.34;78.92;101054.92;1734333;82;27380;-64
2021/08/13 05:45:16;;;;;;;13.98;10.40;;;;;;;16.53;78.91;101054.52;1734300;82;25755;-64
2021/08/13 05:47:42;;;;;;;14.80;9.63;;;;;;;16.73;78.82;101054.29;1714516;82;25770;-64
2021/08/13 05:50:10;;;;;;;11.73;8.18;;;;;;;16.92;78.30;101045.66;1734060;82;25891;-64
2021/08/13 05:52:37;;;;;;;10.05;8.93;;;;;;;17.11;77.65;101046.58;1740256;82;25586;-65
2021/08/13 05:55:05;;;;;;;13.10;8.73;;;;;;;17.33;77.37;101040.48;1734527;82;28271;-65
2021/08/13 05:57:32;;;;;;;13.18;8.60;;;;;;;17.55;77.07;101042.86;1715401;82;25633;-65
2021/08/13 05:59:58;;;;;;;11.63;8.25;;;;;;;17.76;76.41;101046.64;1735374;82;25720;-65
2021/08/13 06:02:24;;;;;;;11.10;8.23;;;;;;;17.95;75.79;101050.26;1715164;82;25691;-65
2021/08/13 06:04:50;;;;;;;11.35;8.35;;;;;;;18.13;75.31;101050.24;1735029;82;25977;-65
2021/08/13 06:07:17;;;;;;;9.88;7.83;;;;;;;18.34;75.72;101047.41;1716409;82;27332;-65
2021/08/13 06:09:44;;;;;;;11.65;8.20;;;;;;;18.55;75.39;101054.11;1735343;82;26137;-65
2021/08/13 06:12:10;;;;;;;10.53;7.15;;;;;;;18.75;73.99;101057.85;1735139;82;25404;-65
2021/08/13 06:14:37;;;;;;;11.08;7.70;;;;;;;18.91;73.35;101054.41;1735265;82;25611;-65
2021/08/13 06:17:04;;;;;;;11.38;7.65;;;;;;;19.08;72.85;101054.13;1735571;82;25681;-65
2021/08/13 06:19:31;;;;;;;10.45;7.97;;;;;;;19.22;72.83;101049.61;1715829;82;27438;-65
2021/08/13 06:21:59;;;;;;;10.03;7.55;;;;;;;19.41;72.25;101053.87;1733454;82;26499;-65
2021/08/13 06:24:27;;;;;;;10.35;7.10;;;;;;;19.58;71.59;101053.31;1732370;82;25634;-65
2021/08/13 06:26:53;;;;;;;9.53;6.22;;;;;;;19.76;70.81;101055.19;1732689;82;26366;-65
2021/08/13 06:29:21;;;;;;;12.00;7.25;;;;;;;19.92;70.65;101053.27;1733077;82;25713;-65
2021/08/13 06:31:49;;;;;;;9.50;6.70;;;;;;;20.11;70.27;101063.53;1732648;82;27563;-65
2021/08/13 06:34:17;;;;;;;10.10;6.92;;;;;;;20.29;69.75;101057.07;1732743;82;25433;-65
2021/08/13 06:36:47;;;;;;;8.68;7.00;;;;;;;20.52;70.04;101055.84;1732589;82;32871;-65
2021/08/13 06:39:14;;;;;;;8.75;6.03;;;;;;;20.76;69.56;101061.50;1732927;82;26582;-65
2021/08/13 17:23:55;;;;;;;6.00;5.40;;;;;;;25.27;42.96;100805.17;1737185;81;25771;-64
2021/08/13 17:26:22;;;;;;;7.37;5.62;;;;;;;25.14;43.16;100810.28;1726417;83;25560;-66
2021/08/13 17:28:48;;;;;;;7.62;5.65;;;;;;;25.02;43.43;100802.38;1726146;83;27315;-65
2021/08/13 17:31:16;;;;;;;7.95;5.53;;;;;;;24.91;43.76;100806.52;1725898;83;25619;-67
2021/08/13 17:33:43;;;;;;;9.15;6.72;;;;;;;24.77;43.98;100806.73;1726414;83;25399;-66
2021/08/13 17:36:09;;;;;;;7.03;5.60;;;;;;;24.67;44.27;100811.66;1724581;83;25691;-65
2021/08/13 17:38:35;;;;;;;6.72;5.97;;;;;;;24.53;44.61;100802.70;1697526;83;25417;-67
2021/08/13 17:41:02;;;;;;;8.95;6.28;;;;;;;24.42;44.88;100798.54;1724598;83;27407;-65
2021/08/13 17:43:29;;;;;;;8.35;6.30;;;;;;;24.31;45.64;100799.09;1725223;83;25561;-66
2021/08/13 17:45:56;;;;;;;9.65;6.30;;;;;;;24.17;46.11;100808.13;1724652;83;25630;-65
2021/08/13 17:48:24;;;;;;;10.08;7.90;;;;;;;24.04;46.22;100806.33;1725960;83;25461;-66
2021/08/13 17:50:50;;;;;;;8.78;7.80;;;;;;;23.92;46.59;100803.11;1724896;83;25626;-66
2021/08/13 17:53:17;;;;;;;10.95;7.03;;;;;;;23.80;46.74;100802.82;1726673;81;27313;-66
2021/08/13 17:55:43;;;;;;;6.95;6.28;;;;;;;23.68;47.19;100807.52;1784107;78;25707;-65
2021/08/13 17:58:10;;;;;;;10.60;7.75;;;;;;;23.57;47.46;100813.55;1805195;79;25701;-66
2021/08/13 18:00:38;;;;;;;28.62;20.85;;;;;;;23.47;47.94;100813.69;1810856;78;25710;-65
2021/08/13 18:03:05;;;;;;;24.85;18.10;;;;;;;23.38;48.11;100816.57;1779249;79;25730;-65
2021/08/13 18:05:31;;;;;;;12.88;10.58;;;;;;;23.28;48.48;100816.13;1810948;79;27313;-64
2021/08/13 18:07:58;;;;;;;15.68;8.15;;;;;;;23.20;48.95;100820.00;1810822;79;25807;-63
2021/08/13 18:10:25;;;;;;;12.88;8.33;;;;;;;23.10;49.12;100815.19;1808602;78;25646;-64
2021/08/13 18:12:51;;;;;;;9.75;7.95;;;;;;;23.01;49.37;100815.49;1779693;79;25769;-64
2021/08/13 18:15:18;;;;;;;8.95;7.40;;;;;;;22.88;49.85;100809.48;1782111;79;25773;-64
2021/08/13 18:17:44;;;;;;;8.53;7.70;;;;;;;22.77;50.28;100807.21;1790686;78;28078;-65
2021/08/13 18:20:12;;;;;;;9.73;8.18;;;;;;;22.63;50.48;100807.88;1805730;78;25726;-66
2021/08/13 18:22:41;;;;;;;10.70;8.65;;;;;;;22.49;50.72;100805.77;1806592;77;25639;-64
2021/08/13 18:25:09;;;;;;;11.45;8.68;;;;;;;22.38;51.29;100805.63;1815477;79;25666;-64
2021/08/13 18:27:38;;;;;;;12.93;9.00;;;;;;;22.28;51.68;100802.18;1815649;79;25741;-64
2021/08/13 18:30:07;;;;;;;18.27;13.35;;;;;;;22.16;51.81;100800.44;1815508;79;27357;-64
2021/08/13 18:32:33;;;;;;;10.55;8.88;;;;;;;22.06;51.92;100807.20;1815565;79;25733;-61
2021/08/13 18:35:00;;;;;;;19.37;12.58;;;;;;;21.95;52.44;100805.11;1815470;79;25655;-60
2021/08/13 18:37:27;;;;;;;20.12;13.43;;;;;;;21.84;52.58;100808.30;1815382;79;25915;-60
2021/08/13 18:39:54;;;;;;;15.32;11.83;;;;;;;21.75;52.96;100813.30;1815488;79;25659;-60
2021/08/13 18:42:20;;;;;;;16.97;10.23;;;;;;;21.67;53.62;100812.99;1814753;79;27305;-60
2021/08/13 18:44:47;;;;;;;14.63;11.53;;;;;;;21.57;53.77;100802.84;1797527;79;25628;-60
2021/08/13 18:47:13;;;;;;;15.68;10.72;;;;;;;21.49;54.30;100811.34;1778308;78;25699;-60
2021/08/13 18:49:39;;;;;;;16.60;10.78;;;;;;;21.40;54.39;100813.78;1767123;79;25721;-60
2021/08/13 18:52:07;;;;;;;12.98;9.28;;;;;;;21.30;54.58;100806.72;1745001;81;25762;-60
2021/08/13 18:54:33;;;;;;;14.18;9.98;;;;;;;21.22;54.86;100809.95;1745081;82;27321;-60
2021/08/13 18:57:00;;;;;;;15.98;10.93;;;;;;;21.12;55.26;100816.86;1744969;81;25717;-60
2021/08/13 18:59:27;;;;;;;27.67;20.62;;;;;;;21.06;55.74;100812.82;1745028;81;25685;-60
2021/08/13 19:01:53;;;;;;;14.00;10.72;;;;;;;20.98;56.18;100809.17;1759048;79;26613;-60
2021/08/13 19:04:20;;;;;;;12.93;11.10;;;;;;;20.92;56.14;100809.26;1781115;79;25647;-65
2021/08/13 19:06:47;;;;;;;14.93;10.28;;;;;;;20.85;56.39;100808.55;1773386;79;28355;-65
2021/08/13 19:09:13;;;;;;;17.20;11.20;;;;;;;20.79;56.62;100808.66;1788204;79;25647;-65
2021/08/13 19:11:40;;;;;;;14.30;11.80;;;;;;;20.71;57.00;100806.36;1799877;78;25767;-63
2021/08/13 19:14:07;;;;;;;18.62;12.73;;;;;;;20.63;57.25;100801.09;1815364;78;25981;-64
2021/08/13 19:16:36;;;;;;;15.03;12.28;;;;;;;20.56;57.59;100799.57;1815543;78;25638;-64
2021/08/13 19:19:03;;;;;;;18.37;13.08;;;;;;;20.49;57.95;100795.52;1815533;79;27700;-65
2021/08/13 19:21:30;;;;;;;23.05;17.55;;;;;;;20.44;58.23;100800.53;1815298;79;25725;-65
2021/08/13 19:23:56;;;;;;;22.70;14.63;;;;;;;20.40;58.45;100806.52;1814222;78;25702;-60
2021/08/13 19:26:23;;;;;;;17.70;12.75;;;;;;;20.33;58.40;100805.24;1813494;78;25608;-60
2021/08/13 19:28:50;;;;;;;17.87;13.03;;;;;;;20.29;58.80;100797.50;1813552;79;25717;-60
2021/08/13 19:31:17;;;;;;;21.27;17.02;;;;;;;20.25;59.06;100806.25;1813474;79;27301;-60
2021/08/13 19:33:44;;;;;;;17.60;14.43;;;;;;;20.20;59.05;100800.27;1781905;79;25755;-60
2021/08/13 19:36:11;;;;;;;15.80;13.13;;;;;;;20.15;59.61;100802.72;1752241;79;26489;-60
2021/08/13 19:38:37;;;;;;;16.37;13.13;;;;;;;20.09;59.78;100806.34;1794186;79;25672;-60
2021/08/13 19:41:05;;;;;;;17.55;13.28;;;;;;;20.05;59.62;100795.06;1794190;79;25771;-60
2021/08/13 19:43:33;;;;;;;16.00;13.68;;;;;;;20.03;59.84;100801.50;1794162;79;26582;-60
2021/08/13 19:46:00;;;;;;;18.17;14.15;;;;;;;20.01;60.16;100799.70;1794153;79;25725;-62
2021/08/13 19:48:26;;;;;;;20.17;14.30;;;;;;;19.97;60.29;100796.85;1794204;79;25358;-62
2021/08/13 19:50:56;;;;;;;21.27;13.38;;;;;;;19.92;60.28;100797.14;1794167;79;25725;-61
2021/08/13 19:53:22;;;;;;;;;;;;;;;19.89;60.52;100796.52;1796193;79;25761;-62
2021/08/13 19:55:48;;;;;;;16.82;14.47;;;;;;;19.86;60.87;100798.59;1790166;79;27317;-62
2021/08/13 19:58:15;;;;;;;31.87;22.27;;;;;;;19.82;60.69;100798.52;1781956;79;25812;-62
2021/08/13 20:00:41;;;;;;;23.98;18.05;;;;;;;19.80;60.86;100795.91;1793718;79;25696;-61
2021/08/13 20:03:08;;;;;;;20.75;15.85;;;;;;;19.77;61.01;100799.59;1796710;79;25783;-61
2021/08/13 20:05:35;;;;;;;19.05;15.38;;;;;;;19.76;60.92;100800.73;1813462;78;26052;-61
2021/08/13 20:08:03;;;;;;;16.10;14.15;;;;;;;19.74;61.41;100794.81;1781797;79;28254;-61
2021/08/13 20:10:31;;;;;;;26.17;19.05;;;;;;;19.70;61.57;100791.73;1813342;79;25606;-62
2021/08/13 20:13:01;;;;;;;21.10;16.48;;;;;;;19.67;61.28;100793.86;1813438;79;25732;-61
2021/08/13 20:15:28;;;;;;;21.85;15.68;;;;;;;19.64;61.67;100797.31;1813312;79;25796;-62
2021/08/13 20:17:54;;;;;;;19.42;16.42;;;;;;;19.60;61.86;100795.86;1813433;79;25698;-63
2021/08/13 20:20:21;;;;;;;20.25;14.93;;;;;;;19.56;61.98;100805.94;1813420;78;27336;-64
2021/08/13 20:22:48;;;;;;;19.45;15.45;;;;;;;19.52;62.14;100796.84;1813369;79;25754;-64
2021/08/13 20:25:18;;;;;;;21.65;15.05;;;;;;;19.49;62.17;100798.93;1818775;78;25712;-64
2021/08/13 20:27:45;;;;;;;22.17;19.15;;;;;;;19.46;62.17;100797.71;1818904;78;25599;-64
2021/08/13 20:30:14;;;;;;;20.75;16.95;;;;;;;19.43;62.46;100794.86;1818890;78;26115;-64
2021/08/13 20:32:41;;;;;;;19.20;15.55;;;;;;;19.37;62.60;100790.23;1818939;78;27368;-64
2021/08/13 20:35:10;;;;;;;20.08;16.17;;;;;;;19.33;62.69;100790.16;1818726;78;27158;-64
2021/08/13 20:37:37;;;;;;;22.05;15.23;;;;;;;19.32;62.88;100791.30;1818975;78;25695;-64
2021/08/13 20:40:09;;;;;;;21.40;16.07;;;;;;;19.29;62.69;100785.73;1818816;78;25623;-63
2021/08/13 20:42:37;;;;;;;19.60;15.25;;;;;;;19.25;62.95;100780.16;1818894;78;25666;-64
2021/08/13 20:45:06;;;;;;;19.00;15.40;;;;;;;19.24;62.96;100784.08;1818868;78;27928;-63
2021/08/13 20:47:32;;;;;;;19.75;14.95;;;;;;;19.20;62.94;100783.97;1813554;78;25747;-65
2021/08/13 20:50:01;;;;;;;18.92;15.78;;;;;;;19.19;63.15;100782.98;1818833;78;25753;-64
2021/08/13 20:52:27;;;;;;;21.93;15.90;;;;;;;19.17;63.29;100781.14;1818770;78;25740;-64
2021/08/13 20:54:54;;;;;;;18.12;14.98;;;;;;;19.15;63.22;100776.02;1818789;78;25781;-63
2021/08/13 20:57:20;;;;;;;22.27;16.12;;;;;;;19.15;63.18;100770.53;1818799;78;27292;-64
2021/08/13 20:59:47;;;;;;;19.65;15.72;;;;;;;19.13;63.23;100774.79;1818773;78;25721;-62
2021/08/13 21:02:13;;;;;;;23.67;15.78;;;;;;;19.10;63.36;100764.53;1816460;78;26509;-63
2021/08/13 21:04:43;;;;;;;23.00;15.75;;;;;;;19.07;63.48;100771.53;1818534;78;25549;-63
2021/08/13 21:07:09;;;;;;;20.80;17.15;;;;;;;19.04;63.58;100766.75;1816244;78;25710;-63
2021/08/13 21:09:38;;;;;;;19.75;16.32;;;;;;;19.01;63.56;100760.02;1818112;78;27307;-63
2021/08/13 21:12:07;;;;;;;24.87;15.93;;;;;;;19.00;63.95;100767.23;1818239;78;25665;-63
2021/08/13 21:14:33;;;;;;;19.00;16.57;;;;;;;18.95;63.90;100767.49;1818316;78;25667;-64
2021/08/13 21:16:59;;;;;;;18.05;16.02;;;;;;;18.93;64.15;100766.48;1818272;78;26351;-63
2021/08/13 21:19:27;;;;;;;23.07;16.48;;;;;;;18.91;64.12;100763.30;1818534;78;25608;-63
2021/08/13 21:21:54;;;;;;;22.45;16.10;;;;;;;18.88;64.12;100760.47;1818469;78;28094;-62
2021/08/13 21:24:20;;;;;;;19.62;15.90;;;;;;;18.85;64.09;100760.04;1809492;78;27181;-63
2021/08/13 21:26:46;;;;;;;22.77;16.20;;;;;;;18.84;64.44;100752.17;1801206;79;26273;-63
2021/08/13 21:29:13;;;;;;;21.77;15.72;;;;;;;18.80;64.47;100753.42;1769322;79;26458;-62
2021/08/13 21:31:39;;;;;;;21.77;16.07;;;;;;;18.79;64.38;100753.19;1800855;79;26337;-63
2021/08/13 21:34:06;;;;;;;18.95;15.05;;;;;;;18.76;64.62;100747.06;1800989;79;27320;-63
2021/08/13 21:36:33;;;;;;;22.00;16.32;;;;;;;18.73;64.60;100748.33;1800947;79;25953;-61
2021/08/13 21:38:59;;;;;;;36.68;26.73;;;;;;;18.70;64.55;100751.80;1800838;79;26318;-61
2021/08/13 21:41:26;;;;;;;19.27;16.00;;;;;;;18.67;64.61;100745.06;1801061;79;26359;-61
2021/08/13 21:43:52;;;;;;;17.67;14.93;;;;;;;18.64;64.75;100739.73;1801015;79;25741;-61
2021/08/13 21:46:19;;;;;;;21.97;16.27;;;;;;;18.60;64.72;100738.83;1800735;79;28029;-64
2021/08/13 21:48:48;;;;;;;17.15;14.73;;;;;;;18.54;64.75;100738.88;1800912;79;25950;-63
2021/08/13 21:51:14;;;;;;;20.97;14.25;;;;;;;18.53;64.86;100737.86;1801010;79;25715;-63
2021/08/13 21:53:41;;;;;;;17.35;14.18;;;;;;;18.48;65.03;100733.44;1800897;79;26075;-63
2021/08/13 21:56:07;;;;;;;18.50;14.70;;;;;;;18.46;65.23;100734.36;1801130;79;25731;-64